createdAt,value
2017-11-05T00:00:15.130Z,54.50
2017-11-05T00:02:41.354Z,50.03
2017-11-05T00:05:07.650Z,52.83
2017-11-05T00:07:33.912Z,49.17
2017-11-05T00:10:01.176Z,53.13
2017-11-05T00:12:27.420Z,52.33
2017-11-05T00:14:53.843Z,51.80
2017-11-05T00:17:20.155Z,53.20
2017-11-05T00:19:46.386Z,49.13
2017-11-05T00:22:13.461Z,50.63
2017-11-05T00:24:39.698Z,53.07
2017-11-05T00:27:06.174Z,47.97
2017-11-05T00:29:33.205Z,56.90
2017-11-05T00:32:00.220Z,53.77
2017-11-05T00:34:26.468Z,55.57
2017-11-05T00:36:52.725Z,50.37
2017-11-05T00:39:18.997Z,58.67
2017-11-05T00:41:45.331Z,53.07
2017-11-05T00:44:11.556Z,63.70
2017-11-05T00:46:37.852Z,50.40
2017-11-05T00:49:04.068Z,53.00
2017-11-05T00:51:30.310Z,53.43
2017-11-05T00:53:56.644Z,52.97
2017-11-05T00:56:22.868Z,53.33
2017-11-05T00:58:49.152Z,47.47
2017-11-05T01:01:15.407Z,56.10
2017-11-05T01:03:42.365Z,49.67
2017-11-05T01:06:08.558Z,55.83
2017-11-05T01:08:34.768Z,62.93
2017-11-05T01:11:01.000Z,58.50
2017-11-05T01:13:27.474Z,50.50
2017-11-05T01:15:53.906Z,55.93
2017-11-05T01:18:20.122Z,54.80
2017-11-05T01:20:46.386Z,60.30
2017-11-05T01:23:12.628Z,54.23
2017-11-05T01:25:38.863Z,60.30
2017-11-05T01:28:05.163Z,75.90
2017-11-05T01:30:31.437Z,52.83
2017-11-05T01:32:57.670Z,55.73
2017-11-05T01:35:24.005Z,52.40
2017-11-05T01:37:50.348Z,54.13
2017-11-05T01:40:16.625Z,48.80
2017-11-05T01:42:42.904Z,58.90
2017-11-05T01:45:09.228Z,57.80
2017-11-05T01:47:35.514Z,54.67
2017-11-05T01:50:01.795Z,51.57
2017-11-05T01:52:28.013Z,52.47
2017-11-05T01:54:54.317Z,48.27
2017-11-05T01:57:20.556Z,52.03
2017-11-05T01:59:46.859Z,44.97
2017-11-05T02:02:13.122Z,51.43
2017-11-05T02:04:39.445Z,51.57
2017-11-05T02:07:05.692Z,53.60
2017-11-05T02:09:31.924Z,48.00
2017-11-05T02:11:58.159Z,65.50
2017-11-05T02:14:24.515Z,54.20
2017-11-05T02:16:50.786Z,53.57
2017-11-05T02:19:17.777Z,55.07
2017-11-05T02:21:44.094Z,62.53
2017-11-05T02:24:10.273Z,76.00
2017-11-05T02:26:36.501Z,61.60
2017-11-05T02:29:02.747Z,63.50
2017-11-05T02:31:29.044Z,62.60
2017-11-05T02:33:55.265Z,68.80
2017-11-05T02:36:22.938Z,58.37
2017-11-05T02:38:49.939Z,54.80
2017-11-05T02:41:16.443Z,60.17
2017-11-05T02:43:46.017Z,72.70
2017-11-05T02:46:12.402Z,62.30
2017-11-05T02:48:38.704Z,61.70
2017-11-05T02:51:05.012Z,55.10
2017-11-05T02:53:31.253Z,56.80
2017-11-05T02:55:58.270Z,59.73
2017-11-05T02:58:24.537Z,63.37
2017-11-05T03:00:50.830Z,60.00
2017-11-05T03:03:17.090Z,59.83
2017-11-05T03:05:43.325Z,64.93
2017-11-05T03:08:09.647Z,62.70
2017-11-05T03:10:35.894Z,53.67
2017-11-05T03:13:02.285Z,55.97
2017-11-05T03:15:29.313Z,60.53
2017-11-05T03:17:55.610Z,63.10
2017-11-05T03:20:22.624Z,57.47
2017-11-05T03:22:49.539Z,58.50
2017-11-05T03:25:15.880Z,52.80
2017-11-05T03:27:42.227Z,58.57
2017-11-05T03:30:09.192Z,57.80
2017-11-05T03:32:35.426Z,68.80
2017-11-05T03:35:01.677Z,51.97
2017-11-05T03:37:27.889Z,57.30
2017-11-05T03:39:54.146Z,60.13
2017-11-05T03:42:20.376Z,58.00
2017-11-05T03:44:46.637Z,58.93
2017-11-05T03:47:13.669Z,60.27
2017-11-05T03:49:39.923Z,54.60
2017-11-05T03:52:06.246Z,60.40
2017-11-05T03:54:32.615Z,54.73
2017-11-05T03:56:58.853Z,52.07
2017-11-05T03:59:25.134Z,53.57
2017-11-05T04:01:51.378Z,58.20
2017-11-05T04:04:18.367Z,60.17
2017-11-05T04:06:44.565Z,52.30
2017-11-05T04:09:10.864Z,64.90
2017-11-05T04:11:37.083Z,60.80
2017-11-05T04:14:03.309Z,55.03
2017-11-05T04:16:29.604Z,55.57
2017-11-05T04:18:55.828Z,60.00
2017-11-05T04:21:22.091Z,53.00
2017-11-05T04:23:48.316Z,57.73
2017-11-05T04:26:14.564Z,53.90
2017-11-05T04:28:40.788Z,54.73
2017-11-05T04:31:07.065Z,51.50
2017-11-05T04:33:33.289Z,55.03
2017-11-05T04:35:59.561Z,63.30
2017-11-05T04:38:25.792Z,55.17
2017-11-05T04:40:52.838Z,52.67
2017-11-05T04:43:19.853Z,49.23
2017-11-05T04:45:46.101Z,56.33
2017-11-05T04:48:12.365Z,68.87
2017-11-05T04:50:38.589Z,61.33
2017-11-05T04:53:04.949Z,66.17
2017-11-05T04:55:32.239Z,57.87
2017-11-05T04:57:58.898Z,65.70
2017-11-05T05:00:25.139Z,71.10
2017-11-05T05:02:51.363Z,63.50
2017-11-05T05:05:17.581Z,80.53
2017-11-05T05:07:43.887Z,89.20
2017-11-05T05:10:10.157Z,91.13
2017-11-05T05:12:37.169Z,77.40
2017-11-05T05:15:03.454Z,83.93
2017-11-05T05:17:29.732Z,81.00
2017-11-05T05:19:56.025Z,93.43
2017-11-05T05:22:22.356Z,92.97
2017-11-05T05:24:48.635Z,103.97
2017-11-05T05:27:14.854Z,102.97
2017-11-05T05:29:41.091Z,97.87
2017-11-05T05:32:08.056Z,112.07
2017-11-05T05:34:34.306Z,100.60
2017-11-05T05:37:00.606Z,105.03
2017-11-05T05:39:26.829Z,83.50
2017-11-05T05:41:53.148Z,117.10
2017-11-05T05:44:19.410Z,103.00
2017-11-05T05:46:45.715Z,96.87
2017-11-05T05:49:12.027Z,110.13
2017-11-05T05:51:38.303Z,108.07
2017-11-05T05:54:04.568Z,113.33
2017-11-05T05:56:30.814Z,104.97
2017-11-05T05:58:57.109Z,103.13
2017-11-05T06:01:23.385Z,102.83
2017-11-05T06:03:49.679Z,110.00
2017-11-05T06:06:15.992Z,110.87
2017-11-05T06:08:42.241Z,108.43
2017-11-05T06:11:08.573Z,114.83
2017-11-05T06:13:34.834Z,83.33
2017-11-05T06:16:01.146Z,101.67
2017-11-05T06:18:27.375Z,94.10
2017-11-05T06:20:53.576Z,89.30
2017-11-05T06:23:19.869Z,84.80
2017-11-05T06:25:46.159Z,92.30
2017-11-05T06:28:12.388Z,106.83
2017-11-05T06:30:38.616Z,113.43
2017-11-05T06:33:04.994Z,92.03
2017-11-05T06:35:33.362Z,100.93
2017-11-05T06:38:01.598Z,98.37
2017-11-05T06:40:27.818Z,128.93
2017-11-05T06:42:54.089Z,104.50
2017-11-05T06:45:20.341Z,102.50
2017-11-05T06:47:48.374Z,91.93
2017-11-05T06:50:14.611Z,77.33
2017-11-05T06:52:40.905Z,84.80
2017-11-05T06:55:07.258Z,80.73
2017-11-05T06:57:33.505Z,77.37
2017-11-05T06:59:59.766Z,75.37
2017-11-05T07:02:26.064Z,83.97
2017-11-05T07:04:52.407Z,86.57
2017-11-05T07:07:19.368Z,77.30
2017-11-05T07:09:45.728Z,86.23
2017-11-05T07:12:13.335Z,65.03
2017-11-05T07:14:39.939Z,72.80
2017-11-05T07:17:06.196Z,81.40
2017-11-05T07:19:32.558Z,72.23
2017-11-05T07:21:58.931Z,74.00
2017-11-05T07:24:25.206Z,64.93
2017-11-05T07:26:51.405Z,58.33
2017-11-05T07:29:17.655Z,57.23
2017-11-05T07:31:44.620Z,51.43
2017-11-05T07:34:10.878Z,59.73
2017-11-05T07:36:37.113Z,59.73
2017-11-05T07:39:03.381Z,62.83
2017-11-05T07:41:30.376Z,62.77
2017-11-05T07:43:56.585Z,51.97
2017-11-05T07:46:22.881Z,60.80
2017-11-05T07:48:49.237Z,56.30
2017-11-05T07:51:15.469Z,68.57
2017-11-05T07:53:42.457Z,64.37
2017-11-05T07:56:08.720Z,60.93
2017-11-05T07:58:35.689Z,66.93
2017-11-05T08:01:01.937Z,60.23
2017-11-05T08:03:28.320Z,64.50
2017-11-05T08:05:54.637Z,59.87
2017-11-05T08:08:21.201Z,67.93
2017-11-05T08:10:47.570Z,61.40
2017-11-05T08:13:13.859Z,72.67
2017-11-05T08:15:40.127Z,85.13
2017-11-05T08:18:06.331Z,66.97
2017-11-05T08:20:32.605Z,81.87
2017-11-05T08:22:58.876Z,79.53
2017-11-05T08:25:25.089Z,74.70
2017-11-05T08:27:51.291Z,77.30
2017-11-05T08:30:17.575Z,80.40
2017-11-05T08:32:43.807Z,83.07
2017-11-05T08:35:10.066Z,79.37
2017-11-05T08:37:36.329Z,86.10
2017-11-05T08:40:02.600Z,79.00
2017-11-05T08:42:28.925Z,71.33
2017-11-05T08:44:55.874Z,68.50
2017-11-05T08:47:22.209Z,76.50
2017-11-05T08:49:48.407Z,71.27
2017-11-05T08:52:14.640Z,50.93
2017-11-05T08:54:40.909Z,35.97
2017-11-05T08:57:07.185Z,13.57
2017-11-05T08:59:33.503Z,15.30
2017-11-05T09:01:59.741Z,5.90
2017-11-05T09:04:26.026Z,4.17
2017-11-05T09:06:52.404Z,7.03
2017-11-05T09:09:18.674Z,3.80
2017-11-05T09:11:45.712Z,2.00
2017-11-05T09:14:11.967Z,2.73
2017-11-05T09:16:38.192Z,1.77
2017-11-05T09:19:04.514Z,3.37
2017-11-05T09:21:30.728Z,2.77
2017-11-05T09:23:57.005Z,3.33
2017-11-05T09:26:23.356Z,1.63
2017-11-05T09:28:49.650Z,1.80
2017-11-05T09:31:15.914Z,3.73
2017-11-05T09:33:42.206Z,6.83
2017-11-05T09:36:08.480Z,1.87
2017-11-05T09:38:35.439Z,1.80
2017-11-05T09:41:01.721Z,2.27
2017-11-05T09:43:27.979Z,2.00
2017-11-05T09:45:54.209Z,2.23
2017-11-05T09:48:20.493Z,2.40
2017-11-05T09:50:46.717Z,1.97
2017-11-05T09:53:12.991Z,1.80
2017-11-05T09:55:39.226Z,1.80
2017-11-05T09:58:05.653Z,2.30
2017-11-05T10:00:31.983Z,1.73
2017-11-05T10:02:58.242Z,1.83
2017-11-05T10:05:24.538Z,2.73
2017-11-05T10:07:50.777Z,2.80
2017-11-05T10:10:16.978Z,1.70
2017-11-05T10:12:43.373Z,3.53
2017-11-05T10:15:09.625Z,2.23
2017-11-05T10:17:35.932Z,2.57
2017-11-05T10:20:02.177Z,1.90
2017-11-05T10:22:28.483Z,1.90
2017-11-05T10:24:55.578Z,1.90
2017-11-05T10:27:21.821Z,2.03
2017-11-05T10:29:48.149Z,3.53
2017-11-05T10:32:15.190Z,2.00
2017-11-05T10:34:42.540Z,1.77
2017-11-05T10:37:10.907Z,2.10
2017-11-05T10:39:37.175Z,2.13
2017-11-05T10:42:03.465Z,4.50
2017-11-05T10:44:29.833Z,2.90
2017-11-05T10:46:56.065Z,3.73
2017-11-05T10:49:22.439Z,5.50
2017-11-05T10:51:49.413Z,6.63
2017-11-05T10:54:16.819Z,5.33
2017-11-05T10:56:43.808Z,3.17
2017-11-05T10:59:11.183Z,2.60
2017-11-05T11:01:37.600Z,10.97
2017-11-05T11:04:05.285Z,3.67
2017-11-05T11:06:32.606Z,5.97
2017-11-05T11:08:59.022Z,5.37
2017-11-05T11:11:26.436Z,11.20
2017-11-05T11:13:52.907Z,7.40
2017-11-05T11:16:19.192Z,14.57
2017-11-05T11:18:45.764Z,8.57
2017-11-05T11:23:47.730Z,5.50
2017-11-05T11:26:13.996Z,11.03
2017-11-05T11:28:40.596Z,9.90
2017-11-05T11:31:07.229Z,4.43
2017-11-05T11:33:33.879Z,43.07
2017-11-05T11:36:01.133Z,21.33
2017-11-05T11:38:27.652Z,13.57
2017-11-05T11:40:54.469Z,4.30
2017-11-05T11:43:20.789Z,5.33
2017-11-05T11:45:47.125Z,4.33
2017-11-05T11:48:13.395Z,5.97
2017-11-05T11:50:39.636Z,10.20
2017-11-05T11:53:05.894Z,8.30
2017-11-05T11:55:32.931Z,6.13
2017-11-05T11:57:59.957Z,11.60
2017-11-05T12:00:26.186Z,4.10
2017-11-05T12:02:52.469Z,31.50
2017-11-05T12:05:18.778Z,39.50
2017-11-05T12:07:45.058Z,44.40
2017-11-05T12:10:13.040Z,5.17
2017-11-05T12:12:39.322Z,19.17
2017-11-05T12:15:05.653Z,14.50
2017-11-05T12:17:32.114Z,15.30
2017-11-05T12:19:58.366Z,3.77
2017-11-05T12:22:24.646Z,11.43
2017-11-05T12:24:50.960Z,17.50
2017-11-05T12:27:17.251Z,12.67
2017-11-05T12:29:43.535Z,4.37
2017-11-05T12:32:09.793Z,4.73
2017-11-05T12:34:36.238Z,30.03
2017-11-05T12:37:02.501Z,39.73
2017-11-05T12:39:28.818Z,6.03
2017-11-05T12:41:55.126Z,14.07
2017-11-05T12:44:21.409Z,13.20
2017-11-05T12:46:48.355Z,27.30
2017-11-05T12:49:14.647Z,6.63
2017-11-05T12:51:41.640Z,10.57
2017-11-05T12:54:08.034Z,4.27
2017-11-05T12:56:35.151Z,7.43
2017-11-05T12:59:01.647Z,6.00
2017-11-05T13:01:28.013Z,6.27
2017-11-05T13:03:54.315Z,2.80
2017-11-05T13:06:20.521Z,6.27
2017-11-05T13:08:46.855Z,3.80
2017-11-05T13:11:13.173Z,4.70
2017-11-05T13:13:39.453Z,8.47
2017-11-05T13:16:05.891Z,3.73
2017-11-05T13:18:32.140Z,4.47
2017-11-05T13:20:58.495Z,3.20
2017-11-05T13:23:24.736Z,8.03
2017-11-05T13:25:51.024Z,5.17
2017-11-05T13:28:17.312Z,5.90
2017-11-05T13:30:43.576Z,4.03
2017-11-05T13:33:09.840Z,6.83
2017-11-05T13:35:36.136Z,9.37
2017-11-05T13:38:02.502Z,4.90
2017-11-05T13:40:29.531Z,8.97
2017-11-05T13:42:55.935Z,5.50
2017-11-05T13:45:22.309Z,5.37
2017-11-05T13:47:48.626Z,5.23
2017-11-05T13:50:14.994Z,4.07
2017-11-05T13:52:42.067Z,8.83
2017-11-05T13:55:08.294Z,5.83
2017-11-05T13:57:34.557Z,3.73
2017-11-05T14:00:01.638Z,3.27
2017-11-05T14:02:27.869Z,5.00
2017-11-05T14:04:54.245Z,4.67
2017-11-05T14:07:20.557Z,2.93
2017-11-05T14:09:46.826Z,6.90
2017-11-05T14:12:13.093Z,5.73
2017-11-05T14:14:39.365Z,5.30
2017-11-05T14:17:05.587Z,3.10
2017-11-05T14:19:32.588Z,3.27
2017-11-05T14:21:58.900Z,22.63
2017-11-05T14:24:25.289Z,4.07
2017-11-05T14:26:51.570Z,95.20
2017-11-05T14:29:18.621Z,39.93
2017-11-05T14:31:44.889Z,61.97
2017-11-05T14:34:11.146Z,17.93
2017-11-05T14:36:37.450Z,17.57
2017-11-05T14:39:04.003Z,26.83
2017-11-05T14:41:30.282Z,40.50
2017-11-05T14:43:57.331Z,13.43
2017-11-05T14:46:23.718Z,14.00
2017-11-05T14:48:49.990Z,10.60
2017-11-05T14:51:16.291Z,6.23
2017-11-05T14:53:42.553Z,5.97
2017-11-05T14:56:08.886Z,9.77
2017-11-05T14:58:35.170Z,9.40
2017-11-05T15:01:01.559Z,9.60
2017-11-05T15:03:27.954Z,7.47
2017-11-05T15:05:54.346Z,6.03
2017-11-05T15:08:20.681Z,12.90
2017-11-05T15:10:46.975Z,9.87
2017-11-05T15:13:14.312Z,16.37
2017-11-05T15:15:40.611Z,16.77
2017-11-05T15:18:06.927Z,11.63
2017-11-05T15:20:33.896Z,10.43
2017-11-05T15:23:00.257Z,12.27
2017-11-05T15:25:26.584Z,12.63
2017-11-05T15:27:53.110Z,18.10
2017-11-05T15:30:19.539Z,12.83
2017-11-05T15:32:45.829Z,17.57
2017-11-05T15:35:12.152Z,18.67
2017-11-05T15:37:38.557Z,19.53
2017-11-05T15:40:05.174Z,17.83
2017-11-05T15:42:31.489Z,9.13
2017-11-05T15:44:57.798Z,18.47
2017-11-05T15:47:24.489Z,11.20
2017-11-05T15:49:51.721Z,14.60
2017-11-05T15:52:18.256Z,12.93
2017-11-05T15:54:44.617Z,16.70
2017-11-05T15:57:11.346Z,15.80
2017-11-05T15:59:37.681Z,14.67
2017-11-05T16:02:04.012Z,8.47
2017-11-05T16:04:30.852Z,9.37
2017-11-05T16:06:57.159Z,18.43
2017-11-05T16:09:23.413Z,10.33
2017-11-05T16:11:49.694Z,18.03
2017-11-05T16:14:16.045Z,12.13
2017-11-05T16:16:42.529Z,14.13
2017-11-05T16:19:08.776Z,15.47
2017-11-05T16:21:35.045Z,10.40
2017-11-05T16:24:01.376Z,9.80
2017-11-05T16:26:27.885Z,13.27
2017-11-05T16:28:54.133Z,10.53
2017-11-05T16:31:20.402Z,10.57
2017-11-05T16:33:46.849Z,13.20
2017-11-05T16:36:14.173Z,12.83
2017-11-05T16:38:41.455Z,10.10
2017-11-05T16:41:07.826Z,13.30
2017-11-05T16:43:34.073Z,20.23
2017-11-05T16:46:00.349Z,13.77
2017-11-05T16:48:27.362Z,18.70
2017-11-05T16:50:53.619Z,21.33
2017-11-05T16:53:20.245Z,18.60
2017-11-05T16:55:46.541Z,32.90
2017-11-05T16:58:12.780Z,39.17
2017-11-05T17:00:39.096Z,185.20
2017-11-05T17:03:05.425Z,47.23
2017-11-05T17:05:31.700Z,23.53
2017-11-05T17:07:58.745Z,32.10
2017-11-05T17:10:25.024Z,30.30
2017-11-05T17:12:51.362Z,73.73
2017-11-05T17:15:17.605Z,83.53
2017-11-05T17:17:43.923Z,83.40
2017-11-05T17:20:10.221Z,59.07
2017-11-05T17:22:36.793Z,29.90
2017-11-05T17:25:03.125Z,23.70
2017-11-05T17:27:29.539Z,64.07
2017-11-05T17:29:56.972Z,20.37
2017-11-05T17:32:24.001Z,18.80
2017-11-05T17:34:50.217Z,32.20
2017-11-05T17:37:16.636Z,46.77
2017-11-05T17:39:43.023Z,92.97
2017-11-05T17:42:09.555Z,23.13
2017-11-05T17:44:35.918Z,24.30
2017-11-05T17:47:02.965Z,16.90
2017-11-05T17:49:29.276Z,18.43
2017-11-05T17:51:56.440Z,15.10
2017-11-05T17:54:22.682Z,31.93
2017-11-05T17:56:48.941Z,15.57
2017-11-05T17:59:16.046Z,25.60
2017-11-05T18:01:42.294Z,53.43
2017-11-05T18:04:08.640Z,20.93
2017-11-05T18:06:34.953Z,14.80
2017-11-05T18:09:01.181Z,15.43
2017-11-05T18:11:27.413Z,23.13
2017-11-05T18:13:53.709Z,27.03
2017-11-05T18:16:20.073Z,13.07
2017-11-05T18:18:46.312Z,31.97
2017-11-05T18:21:12.584Z,90.60
2017-11-05T18:23:38.823Z,42.47
2017-11-05T18:26:05.815Z,32.33
2017-11-05T18:28:32.025Z,13.03
2017-11-05T18:30:58.449Z,31.97
2017-11-05T18:33:24.725Z,12.33
2017-11-05T18:35:50.963Z,10.30
2017-11-05T18:38:17.247Z,18.27
2017-11-05T18:40:43.577Z,13.40
2017-11-05T18:43:09.891Z,11.13
2017-11-05T18:45:36.477Z,14.23
2017-11-05T18:48:02.715Z,16.13
2017-11-05T18:50:29.247Z,12.97
2017-11-05T18:52:55.595Z,14.30
2017-11-05T18:55:22.901Z,8.30
2017-11-05T18:57:49.354Z,9.30
2017-11-05T19:00:15.581Z,8.97
2017-11-05T19:02:41.933Z,13.23
2017-11-05T19:05:08.241Z,7.90
2017-11-05T19:07:34.560Z,11.40
2017-11-05T19:10:01.549Z,11.80
2017-11-05T19:12:27.864Z,14.60
2017-11-05T19:14:54.229Z,9.77
2017-11-05T19:17:20.504Z,17.27
2017-11-05T19:19:46.941Z,14.43
2017-11-05T19:22:13.294Z,8.57
2017-11-05T19:24:39.667Z,10.43
2017-11-05T19:27:06.182Z,10.83
2017-11-05T19:29:32.564Z,9.50
2017-11-05T19:31:58.865Z,8.83
2017-11-05T19:34:25.238Z,6.30
2017-11-05T19:36:51.692Z,16.03
2017-11-05T19:39:17.993Z,14.03
2017-11-05T19:41:44.337Z,13.30
2017-11-05T19:44:10.558Z,9.37
2017-11-05T19:46:36.843Z,14.87
2017-11-05T19:49:03.395Z,10.87
2017-11-05T19:51:29.700Z,18.07
2017-11-05T19:53:55.945Z,11.73
2017-11-05T19:56:22.310Z,25.83
2017-11-05T19:58:48.709Z,13.27
2017-11-05T20:01:15.098Z,114.90
2017-11-05T20:03:41.415Z,22.90
2017-11-05T20:06:07.742Z,17.47
2017-11-05T20:08:34.075Z,14.70
2017-11-05T20:11:00.613Z,13.30
2017-11-05T20:13:27.134Z,13.47
2017-11-05T20:15:53.439Z,12.97
2017-11-05T20:18:20.554Z,13.37
2017-11-05T20:20:47.600Z,13.00
2017-11-05T20:23:14.008Z,16.00
2017-11-05T20:25:40.467Z,15.77
2017-11-05T20:28:06.757Z,21.40
2017-11-05T20:33:19.290Z,11.60
2017-11-05T20:41:37.642Z,15.50
2017-11-05T20:44:04.144Z,16.87
2017-11-05T20:46:31.585Z,13.97
2017-11-05T20:48:57.897Z,11.37
2017-11-05T20:51:29.468Z,10.67
2017-11-05T20:53:56.851Z,14.70
2017-11-05T20:56:23.095Z,10.90
2017-11-05T20:58:49.819Z,11.03
2017-11-05T21:01:16.664Z,14.57
2017-11-05T21:03:43.983Z,14.50
2017-11-05T21:06:10.309Z,16.00
2017-11-05T21:08:36.713Z,15.87
2017-11-05T21:11:02.999Z,9.90
2017-11-05T21:13:29.974Z,13.10
2017-11-05T21:15:56.295Z,13.93
2017-11-05T21:18:22.610Z,13.83
2017-11-05T21:20:48.912Z,13.00
2017-11-05T21:23:15.228Z,10.83
2017-11-05T21:25:41.509Z,20.47
2017-11-05T21:28:07.828Z,8.63
2017-11-05T21:30:34.150Z,11.20
2017-11-05T21:33:01.493Z,12.90
2017-11-05T21:35:27.773Z,19.30
2017-11-05T21:37:56.213Z,10.83
2017-11-05T21:40:25.728Z,14.20
2017-11-05T21:42:52.171Z,15.10
2017-11-05T21:45:18.470Z,10.93
2017-11-05T21:47:48.717Z,16.70
2017-11-05T21:50:16.993Z,10.93
2017-11-05T21:52:43.330Z,12.60
2017-11-05T21:55:09.657Z,17.43
2017-11-05T21:57:37.798Z,17.63
2017-11-05T22:00:04.366Z,13.27
2017-11-05T22:02:30.929Z,11.97
2017-11-05T22:04:57.315Z,14.73
2017-11-05T22:07:23.653Z,16.70
2017-11-05T22:09:50.173Z,15.13
2017-11-05T22:12:17.664Z,15.13
2017-11-05T22:14:45.483Z,16.13
2017-11-05T22:17:15.670Z,15.07
2017-11-05T22:19:41.945Z,14.03
2017-11-05T22:22:08.203Z,23.67
2017-11-05T22:24:36.031Z,19.53
2017-11-05T22:27:02.612Z,16.27
2017-11-05T22:29:29.683Z,14.20
2017-11-05T22:31:56.201Z,13.80
2017-11-05T22:34:22.550Z,25.13
2017-11-05T22:36:48.957Z,13.63
2017-11-05T22:39:15.826Z,14.37
2017-11-05T22:41:42.204Z,15.73
2017-11-05T22:44:08.630Z,27.27
2017-11-05T22:46:36.090Z,17.60
2017-11-05T22:49:02.621Z,15.30
2017-11-05T22:51:29.025Z,16.73
2017-11-05T22:53:55.354Z,18.30
2017-11-05T22:56:21.578Z,21.40
2017-11-05T22:58:48.680Z,18.43
2017-11-05T23:01:15.158Z,14.27
2017-11-05T23:03:41.468Z,18.73
2017-11-05T23:06:07.832Z,12.17
2017-11-05T23:08:34.204Z,15.07
2017-11-05T23:11:00.580Z,12.43
2017-11-05T23:13:26.988Z,18.27
2017-11-05T23:15:53.381Z,20.50
2017-11-05T23:18:20.421Z,14.80
2017-11-05T23:20:46.695Z,20.43
2017-11-05T23:23:12.962Z,17.43
2017-11-05T23:25:39.257Z,11.80
2017-11-05T23:28:05.538Z,14.37
2017-11-05T23:30:32.587Z,25.70
2017-11-05T23:32:58.881Z,13.83
2017-11-05T23:35:25.149Z,13.80
2017-11-05T23:37:51.421Z,16.27
2017-11-05T23:40:17.679Z,14.93
2017-11-05T23:42:43.958Z,16.03
2017-11-05T23:45:10.195Z,16.53
2017-11-05T23:47:36.381Z,18.03
2017-11-05T23:50:02.649Z,11.07
2017-11-05T23:52:28.902Z,16.40
2017-11-05T23:54:55.857Z,17.00
2017-11-05T23:57:22.074Z,15.50
2017-11-05T23:59:48.297Z,22.50
